Language selection

Weather shortcuts

Lake Winnipeg - north basin: Past 24 Hour Conditions

 

Peawanuck Airport

03:00 PM CST 04 March 2024
Disclaimer

This table is a summary of hourly weather conditions for the past 24 hours.
Please note that these observations might not always be representative of weather conditions over their associated marine area.

Date / Time
(CST)
Wind(knots) Conditions Visibility(km) Pressure(kPa) Air tempC) Relative humidity(%) Dew pointC) Wind Chill
04 March 2024
15:00 S 6 Cloudy 16 100.3 -3 81 -6 -7
14:00 SE 6 Cloudy 16 100.4 -5 85 -8 -10
13:00 ESE 8 Light Snow 2 100.4 -7 86 -9 -14
12:00 ESE 8 Light Snow 8 100.5 -9 86 -11 -15
11:00 ESE 11 gusts 16 Light Snow 6 100.6 -10 85 -12 -18
10:00 E 11 gusts 17 Light Snow 2 100.7 -11 84 -13 -19
9:00 E 13 gusts 20 Light Snow 2 100.8 -12 84 -14 -21
8:00 E 14 gusts 25 Heavy Snow 0.4 100.9 -13 84 -15 -22
7:00 E 16 gusts 29 Snow 0.6 101.0 -13 84 -16 -24
6:00 E 14 gusts 27 Light Snow 2 101.3 -14 82 -17 -24
5:00 E 15 gusts 27 Light Snow 3 101.6 -15 80 -18 -26
4:00 E 15 gusts 22 Light Snow 5 101.9 -16 67 -21 -27
3:00 E 13 gusts 21 Cloudy 16 102.1 -17 69 -21 -28
2:00 E 11 gusts 17 Cloudy 16 102.5 -18 70 -22 -28
1:00 E 10 gusts 17 Cloudy 16 102.7 -19 75 -22 -28
0:00 E 11 gusts 17 Cloudy 16 102.8 -19 76 -23 -30
03 March 2024
23:00 E 9 gusts 15 Cloudy 16 103.0 -19 77 -22 -29
22:00 E 9 Cloudy 16 103.1 -20 74 -24 -30
21:00 E 8 Mostly Cloudy 16 103.2 -21 73 -24 -30
20:00 ENE 8 Mostly Cloudy 16 103.3 -21 72 -24 -30
19:00 ENE 6 Partly Cloudy 16 103.4 -20 69 -24 -28
18:00 NE 6 Clear 16 103.4 -18 60 -24 -25
17:00 ENE 4 Sunny 16 103.5 -16 53 -23 -22
16:00 E 5 Sunny 16 103.5 -14 47 -23 -20
15:00 E 7 Sunny 16 103.6 -14 47 -23 -21

Zoom-in to make a selection

Map of Hudson - Hudson Bay marine weather areas Arviat Airport Baker Lake Airport Chesterfield Inlet Airport Coral Harbour Airport Rankin Inlet Airport Sanikiluaq Airport Whale Cove Airport Kinngait (Cape Dorset Airport) Iqaluit Airport Wager Bay Kimmirut Airport Churchill Airport Fort Severn Airport Peawanuck Airport Moosonee Airport Eastmain Airport La Grande Rivière Airport Waskaganish Airport Wemindji Airport Akulivik Airport Inukjuak Airport Ivujivik Airport Kuujjuarapik Airport Puvirnituq Airport Umiujaq Airport Aupaluk Airport Kangiqsujuaq Airport Kangirsuk Airport Kangiqsualujjuaq Airport Kuujjuaq Airport Quaqtaq Airport Salluit Airport Tasiujaq Airport Cape Kakkiviak
Legend:
buoy Buoy
land station Land Station

Hudson - Hudson Bay Area

Another Region

Date modified: